Terminal Aerodrome Forecast
Issued by NWS

Home | Current Version | Previous Version | Text Only | Print | Product List | Glossary Off
Versions: 1 2 3 4 5 6 7 8 9 10 11 12 13 14

000
FTUS43 KBIS 211700
TAFMOT
TAF
KMOT 211730Z 2118/2218 14011G20KT P6SM SKC
     FM220000 12008KT P6SM FEW200
     FM220800 20009KT P6SM SCT140
     FM221500 25013KT P6SM BKN090=

USA.gov is the U.S. government's official web portal to all federal, state and local government web resources and services.